Time;durP1;ratioP1;P1;durP2;ratioP2;P2;SDS_P1;SDS_P2;PMS_P1;PMS_P2;Temp;Humidity;BMP_temperature;BMP_pressure;BME280_temperature;BME280_humidity;BME280_pressure;Samples;Min_cycle;Max_cycle;Signal;HPM_P1;HPM_P2
2022/04/11 00:02:03;;;;;;;6.07;4.45;;;;;;;;;;5083088;28;20039;-72
2022/04/11 00:04:30;;;;;;;6.55;3.83;;;;;;;;;;5090011;28;20202;-71
2022/04/11 00:06:56;;;;;;;8.40;4.00;;;;;;;;;;5089033;28;20537;-71
2022/04/11 00:09:22;;;;;;;6.03;3.92;;;;;;;;;;5070805;28;20070;-71
2022/04/11 00:11:48;;;;;;;6.22;3.83;;;;;;;;;;5080396;28;20117;-71
2022/04/11 00:14:14;;;;;;;11.50;4.20;;;;;;;;;;5088845;28;20117;-72
2022/04/11 00:16:40;;;;;;;8.50;4.18;;;;;;;;;;5084255;28;20468;-72
2022/04/11 00:19:08;;;;;;;8.35;4.20;;;;;;;;;;5088848;28;20091;-72
2022/04/11 00:21:35;;;;;;;8.70;4.22;;;;;;;;;;5092359;28;20028;-72
2022/04/11 00:24:01;;;;;;;7.13;4.00;;;;;;;;;;5092575;28;20423;-71
2022/04/11 00:26:27;;;;;;;6.45;3.80;;;;;;;;;;5091329;28;20024;-72
2022/04/11 00:28:53;;;;;;;8.98;4.13;;;;;;;;;;5074642;28;20032;-72
2022/04/11 00:31:19;;;;;;;7.38;3.97;;;;;;;;;;5091261;28;20430;-72
2022/04/11 00:33:45;;;;;;;13.00;4.35;;;;;;;;;;5092154;28;20020;-71
2022/04/11 00:36:12;;;;;;;8.82;3.80;;;;;;;;;;5091881;28;20419;-72
2022/04/11 00:38:38;;;;;;;6.35;3.70;;;;;;;;;;5073828;28;20540;-72
2022/04/11 00:41:03;;;;;;;9.10;4.40;;;;;;;;;;5092771;28;20123;-73
2022/04/11 00:43:33;;;;;;;7.43;4.22;;;;;;;;;;5092842;28;20027;-72
2022/04/11 00:45:59;;;;;;;6.47;3.83;;;;;;;;;;5092597;28;20028;-72
2022/04/11 00:48:25;;;;;;;7.57;4.05;;;;;;;;;;5085600;28;20039;-72
2022/04/11 00:50:54;;;;;;;7.85;3.92;;;;;;;;;;5092408;28;20032;-72
2022/04/11 00:53:20;;;;;;;5.75;3.80;;;;;;;;;;5092610;28;20103;-72
2022/04/11 00:55:46;;;;;;;6.95;4.28;;;;;;;;;;5092287;28;20028;-72
2022/04/11 00:58:13;;;;;;;9.60;4.40;;;;;;;;;;5098746;28;20036;-72
2022/04/11 01:00:40;;;;;;;6.95;3.83;;;;;;;;;;5092366;28;20023;-72
2022/04/11 01:03:06;;;;;;;7.82;4.00;;;;;;;;;;5090222;28;20477;-72
2022/04/11 01:05:32;;;;;;;5.68;3.47;;;;;;;;;;5091529;28;20036;-72
2022/04/11 01:08:08;;;;;;;7.25;3.83;;;;;;;;;;5092488;28;20039;-72
2022/04/11 01:10:34;;;;;;;8.80;3.78;;;;;;;;;;5092486;28;20050;-72
2022/04/11 01:13:01;;;;;;;6.38;4.20;;;;;;;;;;5092670;28;20173;-72
2022/04/11 01:15:27;;;;;;;11.07;3.90;;;;;;;;;;5091682;28;20042;-72
2022/04/11 01:17:57;;;;;;;9.77;3.80;;;;;;;;;;5117626;22;20119;-72
2022/04/11 01:20:24;;;;;;;5.85;3.20;;;;;;;;;;5086330;28;20398;-72
2022/04/11 01:22:50;;;;;;;8.98;4.05;;;;;;;;;;5074162;28;20031;-72
2022/04/11 01:25:16;;;;;;;9.02;4.22;;;;;;;;;;5076858;28;20027;-73
2022/04/11 01:27:43;;;;;;;8.63;3.97;;;;;;;;;;5090647;28;20020;-72
2022/04/11 01:30:10;;;;;;;5.32;3.55;;;;;;;;;;5071499;28;20036;-73
2022/04/11 01:32:37;;;;;;;8.00;4.00;;;;;;;;;;5073878;28;20595;-73
2022/04/11 01:35:03;;;;;;;8.20;3.67;;;;;;;;;;5070758;28;20082;-74
2022/04/11 01:37:29;;;;;;;10.40;4.00;;;;;;;;;;5084385;28;20474;-72
2022/04/11 01:39:55;;;;;;;8.52;3.70;;;;;;;;;;5079003;28;20024;-73
2022/04/11 01:42:21;;;;;;;6.50;3.33;;;;;;;;;;5102993;28;20020;-73
2022/04/11 01:44:47;;;;;;;8.18;4.00;;;;;;;;;;5100602;28;20035;-73
2022/04/11 01:47:14;;;;;;;12.23;4.50;;;;;;;;;;5091408;28;20032;-72
2022/04/11 01:49:40;;;;;;;5.15;3.67;;;;;;;;;;5088204;28;20050;-72
2022/04/11 01:52:06;;;;;;;6.88;4.10;;;;;;;;;;5093790;28;20032;-73
2022/04/11 01:54:32;;;;;;;5.55;3.70;;;;;;;;;;5089135;28;20099;-72
2022/04/11 01:56:58;;;;;;;5.75;3.65;;;;;;;;;;5073231;28;20030;-72
2022/04/11 01:59:26;;;;;;;8.88;3.67;;;;;;;;;;5107802;28;20111;-72
2022/04/11 02:01:52;;;;;;;5.80;4.00;;;;;;;;;;5071533;28;20032;-73
2022/04/11 02:04:18;;;;;;;7.22;3.78;;;;;;;;;;5097667;28;20079;-73
2022/04/11 02:06:44;;;;;;;6.13;4.03;;;;;;;;;;5079457;28;20020;-73
2022/04/11 02:09:10;;;;;;;8.68;4.00;;;;;;;;;;5075850;28;20039;-72
2022/04/11 02:11:36;;;;;;;8.23;3.80;;;;;;;;;;5070214;28;20382;-72
2022/04/11 02:14:02;;;;;;;6.65;3.53;;;;;;;;;;5093803;28;20024;-72
2022/04/11 02:16:28;;;;;;;6.75;3.60;;;;;;;;;;5093975;28;20027;-72
2022/04/11 02:18:54;;;;;;;6.63;3.22;;;;;;;;;;5068798;28;20047;-73
2022/04/11 02:21:20;;;;;;;7.28;3.58;;;;;;;;;;5083946;28;20111;-72
2022/04/11 02:23:46;;;;;;;4.47;3.33;;;;;;;;;;5100836;28;20031;-72
2022/04/11 02:26:12;;;;;;;5.20;3.35;;;;;;;;;;5089976;28;20108;-73
2022/04/11 02:28:38;;;;;;;8.00;3.85;;;;;;;;;;5096828;28;20430;-72
2022/04/11 02:31:04;;;;;;;7.82;3.60;;;;;;;;;;5095636;28;20060;-72
2022/04/11 02:33:30;;;;;;;6.43;3.28;;;;;;;;;;5090605;28;20077;-72
2022/04/11 02:35:56;;;;;;;7.75;4.05;;;;;;;;;;5090300;28;20028;-72
2022/04/11 02:38:22;;;;;;;7.05;3.63;;;;;;;;;;5090829;28;20017;-73
2022/04/11 02:40:48;;;;;;;9.10;3.70;;;;;;;;;;5070540;28;20020;-72
2022/04/11 02:43:14;;;;;;;7.30;3.72;;;;;;;;;;5077546;28;20028;-72
2022/04/11 02:45:40;;;;;;;6.50;3.83;;;;;;;;;;5098342;28;20032;-72
2022/04/11 02:48:07;;;;;;;6.05;3.88;;;;;;;;;;5066354;28;20024;-73
2022/04/11 02:50:33;;;;;;;8.93;4.60;;;;;;;;;;5092366;28;20094;-72
2022/04/11 02:52:59;;;;;;;7.93;4.10;;;;;;;;;;5078776;28;20134;-72
2022/04/11 02:55:25;;;;;;;6.72;4.07;;;;;;;;;;5077342;28;20461;-73
2022/04/11 02:57:51;;;;;;;7.97;4.20;;;;;;;;;;5086781;28;20035;-73
2022/04/11 03:00:18;;;;;;;11.23;4.40;;;;;;;;;;5079827;28;20025;-72
2022/04/11 03:02:44;;;;;;;9.40;4.65;;;;;;;;;;5070258;28;20124;-72
2022/04/11 03:05:10;;;;;;;10.10;4.88;;;;;;;;;;5076630;28;20016;-73
2022/04/11 03:07:36;;;;;;;9.93;4.25;;;;;;;;;;5067083;28;20140;-73
2022/04/11 03:10:02;;;;;;;9.90;4.13;;;;;;;;;;5090165;28;20048;-72
2022/04/11 03:12:28;;;;;;;8.50;4.47;;;;;;;;;;5093488;28;20565;-72
2022/04/11 03:14:54;;;;;;;6.93;4.30;;;;;;;;;;5091821;28;20094;-73
2022/04/11 03:17:20;;;;;;;6.13;3.67;;;;;;;;;;5069614;28;20469;-73
2022/04/11 03:19:46;;;;;;;11.75;4.72;;;;;;;;;;5084951;28;20103;-72
2022/04/11 03:22:12;;;;;;;6.60;3.95;;;;;;;;;;5069048;28;20048;-73
2022/04/11 03:24:39;;;;;;;6.78;3.85;;;;;;;;;;5092875;28;20074;-72
2022/04/11 03:27:05;;;;;;;10.15;4.18;;;;;;;;;;5062608;28;20135;-73
2022/04/11 03:29:31;;;;;;;10.32;4.45;;;;;;;;;;5090524;28;20024;-72
2022/04/11 03:31:57;;;;;;;8.95;4.45;;;;;;;;;;5071789;28;20034;-73
2022/04/11 03:34:23;;;;;;;7.45;3.58;;;;;;;;;;5087609;28;20023;-74
2022/04/11 03:36:51;;;;;;;6.57;4.28;;;;;;;;;;5093628;28;20062;-73
2022/04/11 03:39:17;;;;;;;7.43;3.55;;;;;;;;;;5089275;28;20024;-72
2022/04/11 03:41:43;;;;;;;5.53;3.67;;;;;;;;;;5089568;28;20492;-73
2022/04/11 03:44:10;;;;;;;8.20;3.33;;;;;;;;;;5095082;28;20058;-73
2022/04/11 03:46:36;;;;;;;9.32;4.43;;;;;;;;;;5096964;28;20215;-72
2022/04/11 03:49:02;;;;;;;10.20;4.57;;;;;;;;;;5084648;28;20028;-73
2022/04/11 03:51:28;;;;;;;6.55;4.35;;;;;;;;;;5062678;28;20043;-73
2022/04/11 03:53:55;;;;;;;10.63;4.55;;;;;;;;;;5077690;28;20523;-72
2022/04/11 03:56:22;;;;;;;13.70;4.70;;;;;;;;;;5091288;28;20043;-73
2022/04/11 03:58:48;;;;;;;7.78;3.85;;;;;;;;;;5087712;28;20477;-73
2022/04/11 04:01:14;;;;;;;7.38;3.90;;;;;;;;;;5087515;28;20025;-72
2022/04/11 04:03:40;;;;;;;8.13;4.32;;;;;;;;;;5057319;28;20043;-75
2022/04/11 04:06:07;;;;;;;8.20;4.25;;;;;;;;;;5067142;28;20035;-73
2022/04/11 04:08:33;;;;;;;8.57;4.65;;;;;;;;;;5090811;28;20047;-74
2022/04/11 04:10:59;;;;;;;6.25;4.32;;;;;;;;;;5088763;28;20016;-73
2022/04/11 04:13:25;;;;;;;6.80;3.80;;;;;;;;;;5089174;28;20446;-73
2022/04/11 04:15:51;;;;;;;9.07;4.22;;;;;;;;;;5089876;28;20460;-72
2022/04/11 04:18:17;;;;;;;11.40;4.30;;;;;;;;;;5074051;28;20118;-73
2022/04/11 04:20:43;;;;;;;6.88;3.67;;;;;;;;;;5091693;28;20080;-72
2022/04/11 04:23:09;;;;;;;8.65;3.65;;;;;;;;;;5089527;28;20376;-73
2022/04/11 04:25:36;;;;;;;9.98;4.20;;;;;;;;;;5086450;28;20027;-72
2022/04/11 04:28:02;;;;;;;5.88;3.70;;;;;;;;;;5090315;28;20421;-72
2022/04/11 04:30:31;;;;;;;10.65;4.22;;;;;;;;;;5085104;28;20052;-73
2022/04/11 04:32:58;;;;;;;10.13;4.43;;;;;;;;;;5069871;28;20378;-72
2022/04/11 04:35:24;;;;;;;11.40;4.15;;;;;;;;;;5090419;28;20039;-72
2022/04/11 04:37:50;;;;;;;8.10;4.60;;;;;;;;;;5086902;28;20100;-73
2022/04/11 04:40:16;;;;;;;8.35;4.13;;;;;;;;;;5089036;28;20024;-73
2022/04/11 04:42:42;;;;;;;14.05;5.60;;;;;;;;;;5072138;28;20569;-72
2022/04/11 04:45:09;;;;;;;15.32;5.20;;;;;;;;;;5071007;28;20020;-72
2022/04/11 04:47:35;;;;;;;9.43;5.20;;;;;;;;;;5081224;28;20020;-73
2022/04/11 04:50:01;;;;;;;12.52;5.53;;;;;;;;;;5087856;28;20550;-74
2022/04/11 04:52:27;;;;;;;14.48;5.47;;;;;;;;;;5095729;28;20035;-74
2022/04/11 04:54:53;;;;;;;11.98;5.60;;;;;;;;;;5087994;28;20012;-73
2022/04/11 04:57:19;;;;;;;9.95;5.95;;;;;;;;;;5087982;28;20073;-73
2022/04/11 04:59:45;;;;;;;13.40;6.53;;;;;;;;;;5086223;28;20084;-72
2022/04/11 05:02:12;;;;;;;9.77;6.10;;;;;;;;;;5069457;28;20024;-72
2022/04/11 05:04:38;;;;;;;10.00;5.72;;;;;;;;;;5070341;28;20519;-72
2022/04/11 05:07:04;;;;;;;9.75;5.22;;;;;;;;;;5073796;28;20024;-73
2022/04/11 05:09:30;;;;;;;12.65;6.30;;;;;;;;;;5076372;28;20024;-72
2022/04/11 05:11:56;;;;;;;8.80;4.57;;;;;;;;;;5074549;28;20527;-67
2022/04/11 05:14:22;;;;;;;9.00;5.22;;;;;;;;;;5092076;28;20032;-68
2022/04/11 05:16:48;;;;;;;13.30;6.18;;;;;;;;;;5077165;28;20020;-67
2022/04/11 05:19:14;;;;;;;7.60;4.90;;;;;;;;;;5081761;28;20056;-67
2022/04/11 05:21:40;;;;;;;8.10;5.15;;;;;;;;;;5109550;28;20109;-67
2022/04/11 05:24:06;;;;;;;12.82;5.97;;;;;;;;;;5080588;28;20034;-68
2022/04/11 05:26:32;;;;;;;9.60;5.35;;;;;;;;;;5104088;28;20028;-67
2022/04/11 05:28:59;;;;;;;9.27;6.03;;;;;;;;;;5092544;28;20480;-67
2022/04/11 05:31:25;;;;;;;10.82;5.93;;;;;;;;;;5073753;28;20040;-68
2022/04/11 05:33:51;;;;;;;8.27;5.00;;;;;;;;;;5080779;28;20029;-67
2022/04/11 05:36:22;;;;;;;11.77;5.70;;;;;;;;;;5076015;28;20115;-67
2022/04/11 05:45:01;;;;;;;9.80;5.68;;;;;;;;;;5092598;28;20040;-67
2022/04/11 05:47:27;;;;;;;11.32;5.85;;;;;;;;;;5073792;28;20020;-68
2022/04/11 05:49:53;;;;;;;9.85;5.40;;;;;;;;;;5093622;28;20016;-68
2022/04/11 05:52:21;;;;;;;8.32;5.03;;;;;;;;;;5079216;28;20477;-68
2022/04/11 05:54:47;;;;;;;9.98;5.10;;;;;;;;;;5075399;28;20047;-67
2022/04/11 05:57:13;;;;;;;10.23;5.88;;;;;;;;;;5090565;28;20396;-67
2022/04/11 05:59:39;;;;;;;11.65;5.70;;;;;;;;;;5078971;28;20035;-67
2022/04/11 06:02:05;;;;;;;9.68;5.45;;;;;;;;;;5091885;28;20035;-68
2022/04/11 06:04:31;;;;;;;12.48;5.90;;;;;;;;;;5073087;28;20047;-69
2022/04/11 06:06:58;;;;;;;10.75;5.43;;;;;;;;;;5090693;28;20472;-67
2022/04/11 06:09:24;;;;;;;9.20;5.32;;;;;;;;;;5071099;28;20038;-67
2022/04/11 06:11:50;;;;;;;17.52;6.18;;;;;;;;;;5080373;28;20394;-67
2022/04/11 06:14:16;;;;;;;10.38;5.25;;;;;;;;;;5080268;28;20024;-67
2022/04/11 06:16:42;;;;;;;18.73;5.70;;;;;;;;;;5090609;28;20397;-67
2022/04/11 06:19:08;;;;;;;11.07;6.30;;;;;;;;;;5072205;28;20028;-67
2022/04/11 06:21:34;;;;;;;10.23;5.55;;;;;;;;;;5097912;28;20030;-68
2022/04/11 06:24:00;;;;;;;10.20;5.22;;;;;;;;;;5085221;28;20024;-67
2022/04/11 06:26:26;;;;;;;7.75;4.57;;;;;;;;;;5094974;28;20085;-67
2022/04/11 06:28:52;;;;;;;9.65;5.53;;;;;;;;;;5100320;28;20085;-67
2022/04/11 06:31:18;;;;;;;12.82;6.10;;;;;;;;;;5104918;28;20140;-67
2022/04/11 06:33:44;;;;;;;11.35;5.20;;;;;;;;;;5081607;28;20028;-67
2022/04/11 06:36:10;;;;;;;9.10;4.88;;;;;;;;;;5106686;28;20382;-67
2022/04/11 06:38:36;;;;;;;10.30;5.28;;;;;;;;;;5083818;28;20469;-67
2022/04/11 06:41:03;;;;;;;11.68;5.38;;;;;;;;;;5090780;28;20042;-67
2022/04/11 06:43:29;;;;;;;9.68;5.47;;;;;;;;;;5077414;28;20100;-67
2022/04/11 06:45:55;;;;;;;14.07;5.85;;;;;;;;;;5089834;28;20462;-67
2022/04/11 06:48:21;;;;;;;10.70;5.88;;;;;;;;;;5090212;28;20047;-67
2022/04/11 06:50:47;;;;;;;11.15;5.68;;;;;;;;;;5073696;28;20066;-67
2022/04/11 06:53:16;;;;;;;8.05;5.55;;;;;;;;;;5089623;28;20039;-67
2022/04/11 06:55:47;;;;;;;8.10;4.57;;;;;;;;;;5071524;28;20070;-67
2022/04/11 06:58:14;;;;;;;13.32;5.15;;;;;;;;;;5106823;28;20115;-67
2022/04/11 07:00:40;;;;;;;8.73;4.78;;;;;;;;;;5093366;28;20069;-68
2022/04/11 07:03:06;;;;;;;5.75;4.05;;;;;;;;;;5099017;28;20099;-68
2022/04/11 07:05:32;;;;;;;9.07;4.32;;;;;;;;;;5089975;28;20032;-68
2022/04/11 07:07:58;;;;;;;7.88;3.85;;;;;;;;;;5089172;28;20024;-68
2022/04/11 07:10:24;;;;;;;6.00;3.63;;;;;;;;;;5090109;28;20613;-68
2022/04/11 07:12:50;;;;;;;5.15;3.47;;;;;;;;;;5072160;28;20062;-67
2022/04/11 07:15:16;;;;;;;7.20;3.20;;;;;;;;;;5089032;28;20020;-68
2022/04/11 07:17:42;;;;;;;6.55;3.40;;;;;;;;;;5071386;28;20276;-68
2022/04/11 07:20:09;;;;;;;7.00;3.33;;;;;;;;;;5071258;28;20020;-69
2022/04/11 07:22:35;;;;;;;5.50;3.13;;;;;;;;;;5074269;28;20028;-68
2022/04/11 07:25:02;;;;;;;7.82;3.38;;;;;;;;;;5082817;28;20508;-68
2022/04/11 07:27:28;;;;;;;4.57;3.33;;;;;;;;;;5100686;28;20020;-68
2022/04/11 07:29:54;;;;;;;8.20;3.28;;;;;;;;;;5074711;28;20060;-68
2022/04/11 07:32:20;;;;;;;5.25;3.13;;;;;;;;;;5079354;28;20477;-68
2022/04/11 07:34:46;;;;;;;6.32;3.15;;;;;;;;;;5071496;28;20024;-68
2022/04/11 07:37:13;;;;;;;8.05;3.85;;;;;;;;;;5088941;28;20591;-68
2022/04/11 07:39:39;;;;;;;5.05;3.75;;;;;;;;;;5098582;28;20050;-68
2022/04/11 07:42:05;;;;;;;7.15;3.78;;;;;;;;;;5097290;28;20107;-68
2022/04/11 07:44:31;;;;;;;6.75;4.03;;;;;;;;;;5089888;28;20098;-68
2022/04/11 07:46:57;;;;;;;7.43;3.10;;;;;;;;;;5088813;28;20024;-68
2022/04/11 07:49:23;;;;;;;3.83;2.88;;;;;;;;;;5089770;28;20022;-68
2022/04/11 07:54:53;;;;;;;7.43;3.47;;;;;;;;;;5091727;23;20052;-65
2022/04/11 07:57:19;;;;;;;6.90;4.00;;;;;;;;;;5062270;28;20016;-65
2022/04/11 07:59:45;;;;;;;4.50;3.22;;;;;;;;;;5068745;28;20133;-65
2022/04/11 08:02:11;;;;;;;4.85;3.08;;;;;;;;;;5065347;28;20017;-65
2022/04/11 08:04:37;;;;;;;6.30;3.00;;;;;;;;;;5065275;28;20020;-64
2022/04/11 08:07:04;;;;;;;5.63;3.35;;;;;;;;;;5068720;28;20099;-65
2022/04/11 08:09:30;;;;;;;7.85;3.20;;;;;;;;;;5067311;28;20025;-65
2022/04/11 08:11:56;;;;;;;13.68;4.32;;;;;;;;;;5069052;28;20040;-65
2022/04/11 08:14:22;;;;;;;6.13;3.47;;;;;;;;;;5069369;28;20043;-65
2022/04/11 08:16:48;;;;;;;7.10;4.07;;;;;;;;;;5068225;28;20656;-65
2022/04/11 08:19:14;;;;;;;8.27;4.70;;;;;;;;;;5068383;28;20025;-65
2022/04/11 08:21:40;;;;;;;2.35;1.67;;;;;;;;;;5069038;28;20099;-66
2022/04/11 08:24:06;;;;;;;6.85;3.25;;;;;;;;;;5068056;28;20112;-65
2022/04/11 08:26:32;;;;;;;5.03;3.78;;;;;;;;;;5063250;28;20022;-65
2022/04/11 08:28:58;;;;;;;11.30;3.95;;;;;;;;;;5068020;28;20036;-65
2022/04/11 08:31:24;;;;;;;5.38;3.65;;;;;;;;;;5069116;28;20067;-64
2022/04/11 08:33:50;;;;;;;9.35;4.35;;;;;;;;;;5068687;28;20331;-65
2022/04/11 08:36:17;;;;;;;6.20;3.97;;;;;;;;;;5069386;28;20020;-65
2022/04/11 08:38:43;;;;;;;9.50;3.60;;;;;;;;;;5067238;28;20025;-65
2022/04/11 08:41:11;;;;;;;6.20;4.00;;;;;;;;;;5072983;28;20020;-65
2022/04/11 08:43:37;;;;;;;6.55;3.70;;;;;;;;;;5072720;28;20020;-65
2022/04/11 08:46:05;;;;;;;11.45;2.72;;;;;;;;;;5072228;28;20020;-65
2022/04/11 08:48:32;;;;;;;9.93;4.20;;;;;;;;;;5072906;28;20027;-64
2022/04/11 08:50:58;;;;;;;8.35;3.72;;;;;;;;;;5071921;28;20032;-65
2022/04/11 08:53:24;;;;;;;7.18;4.57;;;;;;;;;;5077846;28;20135;-65
2022/04/11 08:55:51;;;;;;;6.43;3.30;;;;;;;;;;5110669;28;20578;-64
2022/04/11 08:58:18;;;;;;;7.95;3.30;;;;;;;;;;5112745;28;20034;-65
2022/04/11 09:00:44;;;;;;;6.47;3.60;;;;;;;;;;5099349;28;20035;-65
2022/04/11 09:03:10;;;;;;;4.75;3.10;;;;;;;;;;5104024;28;20016;-64
2022/04/11 09:05:36;;;;;;;6.50;3.67;;;;;;;;;;5096228;28;20031;-65
2022/04/11 09:08:02;;;;;;;7.68;3.50;;;;;;;;;;5099046;28;20024;-65
2022/04/11 09:10:32;;;;;;;7.28;3.13;;;;;;;;;;5106104;28;20035;-65
2022/04/11 09:13:03;;;;;;;6.25;2.92;;;;;;;;;;5103861;28;20069;-65
2022/04/11 09:15:30;;;;;;;7.13;3.08;;;;;;;;;;5096488;28;20052;-65
2022/04/11 09:17:57;;;;;;;6.05;3.35;;;;;;;;;;5108808;28;20037;-65
2022/04/11 09:20:27;;;;;;;9.95;3.20;;;;;;;;;;5106426;28;20030;-64
2022/04/11 09:22:53;;;;;;;4.82;2.80;;;;;;;;;;5112783;28;20026;-65
2022/04/11 09:25:20;;;;;;;4.90;3.38;;;;;;;;;;5095743;28;20373;-64
2022/04/11 09:27:47;;;;;;;2.63;1.95;;;;;;;;;;5091960;28;20107;-65
2022/04/11 09:30:24;;;;;;;4.60;2.55;;;;;;;;;;5092056;28;20372;-65
2022/04/11 09:32:51;;;;;;;3.92;1.95;;;;;;;;;;5091053;28;20488;-65
2022/04/11 09:35:21;;;;;;;3.80;2.40;;;;;;;;;;5094806;28;20019;-66
2022/04/11 09:37:47;;;;;;;1.77;1.30;;;;;;;;;;5088056;28;20012;-64
2022/04/11 09:40:13;;;;;;;3.80;2.72;;;;;;;;;;5086015;28;20068;-65
2022/04/11 09:42:39;;;;;;;5.38;2.97;;;;;;;;;;5103158;28;20468;-65
2022/04/11 09:45:05;;;;;;;3.92;2.55;;;;;;;;;;5090296;28;20031;-66
2022/04/11 09:47:31;;;;;;;3.55;2.65;;;;;;;;;;5076250;28;20048;-64
2022/04/11 09:49:57;;;;;;;4.57;2.20;;;;;;;;;;5101476;28;20409;-65
2022/04/11 09:52:29;;;;;;;3.22;2.63;;;;;;;;;;5096146;28;20028;-65
2022/04/11 09:54:57;;;;;;;6.38;2.30;;;;;;;;;;5090837;28;20036;-65
2022/04/11 09:57:26;;;;;;;4.05;2.50;;;;;;;;;;5081719;28;20026;-65
2022/04/11 09:59:53;;;;;;;3.47;1.75;;;;;;;;;;5107560;28;20051;-65
2022/04/11 10:02:22;;;;;;;1.98;1.80;;;;;;;;;;5104206;28;20027;-65
2022/04/11 10:04:48;;;;;;;5.70;2.33;;;;;;;;;;5099353;28;20024;-65
2022/04/11 10:07:14;;;;;;;8.35;2.13;;;;;;;;;;5099458;28;20020;-65
2022/04/11 10:09:40;;;;;;;3.75;2.53;;;;;;;;;;5084949;28;20036;-65
2022/04/11 10:12:06;;;;;;;5.80;2.55;;;;;;;;;;5088570;28;20104;-64
2022/04/11 10:14:32;;;;;;;2.63;1.90;;;;;;;;;;5099079;28;20024;-65
2022/04/11 10:17:02;;;;;;;4.90;2.97;;;;;;;;;;5089225;28;20391;-65
2022/04/11 10:19:31;;;;;;;7.50;2.80;;;;;;;;;;5096628;28;20019;-65
2022/04/11 10:22:04;;;;;;;4.50;2.35;;;;;;;;;;5100097;28;20027;-65
2022/04/11 10:24:35;;;;;;;6.88;2.85;;;;;;;;;;5094045;28;20035;-65
2022/04/11 10:27:17;;;;;;;5.90;2.63;;;;;;;;;;5092556;28;20071;-65
2022/04/11 10:29:43;;;;;;;3.80;2.40;;;;;;;;;;5098754;28;20024;-65
2022/04/11 10:32:09;;;;;;;6.07;2.38;;;;;;;;;;5106815;28;20495;-65
2022/04/11 10:34:45;;;;;;;4.78;2.30;;;;;;;;;;5090424;28;20020;-65
2022/04/11 10:37:11;;;;;;;7.85;3.03;;;;;;;;;;5101133;28;20039;-64
2022/04/11 10:39:39;;;;;;;4.05;2.85;;;;;;;;;;5091181;28;20032;-65
2022/04/11 10:42:09;;;;;;;5.25;2.40;;;;;;;;;;5097952;28;20515;-66
2022/04/11 10:44:45;;;;;;;2.80;2.15;;;;;;;;;;5089787;28;20381;-65
2022/04/11 10:47:11;;;;;;;4.40;1.70;;;;;;;;;;5079417;28;20066;-65
2022/04/11 10:49:49;;;;;;;10.65;3.05;;;;;;;;;;5105757;28;20454;-65
2022/04/11 10:52:28;;;;;;;6.30;2.40;;;;;;;;;;5101949;28;20035;-64
2022/04/11 10:54:55;;;;;;;5.40;2.30;;;;;;;;;;5081551;28;20031;-65
2022/04/11 10:57:34;;;;;;;5.00;2.83;;;;;;;;;;5094304;28;20008;-65
2022/04/11 11:00:09;;;;;;;4.72;3.17;;;;;;;;;;5108569;28;20055;-65
2022/04/11 11:05:23;;;;;;;4.35;2.40;;;;;;;;;;5090397;28;20038;-65
2022/04/11 11:07:49;;;;;;;4.43;2.45;;;;;;;;;;5106840;28;20024;-65
2022/04/11 11:10:27;;;;;;;5.28;2.40;;;;;;;;;;5093520;28;20103;-65
2022/04/11 11:12:52;;;;;;;4.45;2.33;;;;;;;;;;5089373;28;20115;-65
2022/04/11 11:15:26;;;;;;;4.45;2.58;;;;;;;;;;5091883;28;20114;-65
2022/04/11 11:17:56;;;;;;;4.05;2.33;;;;;;;;;;5089667;28;20024;-65
2022/04/11 11:20:23;;;;;;;2.10;1.15;;;;;;;;;;5091184;28;20012;-65
2022/04/11 11:23:07;;;;;;;9.73;4.53;;;;;;;;;;5089470;28;20489;-66
2022/04/11 11:25:33;;;;;;;21.00;7.32;;;;;;;;;;5096078;28;20063;-66
2022/04/11 11:28:00;;;;;;;5.80;2.50;;;;;;;;;;5100593;28;20096;-65
2022/04/11 11:30:26;;;;;;;4.40;2.63;;;;;;;;;;5109514;28;20480;-65
2022/04/11 11:32:52;;;;;;;2.00;1.23;;;;;;;;;;5100363;28;20255;-65
2022/04/11 11:35:18;;;;;;;15.43;5.80;;;;;;;;;;5109729;28;20019;-65
2022/04/11 11:37:46;;;;;;;9.02;2.80;;;;;;;;;;5081844;28;20489;-64
2022/04/11 11:40:12;;;;;;;12.45;4.40;;;;;;;;;;5099091;28;20030;-65
2022/04/11 11:42:38;;;;;;;11.52;3.47;;;;;;;;;;5094463;28;20024;-65
2022/04/11 11:45:08;;;;;;;6.22;2.92;;;;;;;;;;5088979;28;20540;-65
2022/04/11 11:47:34;;;;;;;5.70;2.53;;;;;;;;;;5088825;28;20023;-65
2022/04/11 11:50:05;;;;;;;4.43;2.25;;;;;;;;;;5088865;28;20020;-65
2022/04/11 11:52:31;;;;;;;9.65;3.33;;;;;;;;;;5103098;28;20029;-65
2022/04/11 11:54:57;;;;;;;6.78;2.85;;;;;;;;;;5101817;28;20492;-65
2022/04/11 11:57:27;;;;;;;7.97;2.75;;;;;;;;;;5081315;28;20016;-65
2022/04/11 12:00:02;;;;;;;12.55;5.47;;;;;;;;;;5088255;28;20028;-65
2022/04/11 12:05:24;;;;;;;6.80;2.45;;;;;;;;;;5080410;28;20031;-65
2022/04/11 12:07:51;;;;;;;6.32;3.85;;;;;;;;;;5071089;28;20509;-65
2022/04/11 12:10:18;;;;;;;14.27;6.32;;;;;;;;;;5068472;28;20036;-65
2022/04/11 12:12:44;;;;;;;4.85;2.95;;;;;;;;;;5068587;28;20409;-65
2022/04/11 12:15:11;;;;;;;4.65;2.78;;;;;;;;;;5086996;28;20024;-65
2022/04/11 12:17:38;;;;;;;3.67;2.45;;;;;;;;;;5081738;28;20035;-65
2022/04/11 12:20:08;;;;;;;4.07;2.22;;;;;;;;;;5092004;28;20118;-65
2022/04/11 12:22:34;;;;;;;7.00;2.30;;;;;;;;;;5093529;28;20035;-65
2022/04/11 12:25:00;;;;;;;5.78;2.25;;;;;;;;;;5092572;28;20512;-66
2022/04/11 12:27:26;;;;;;;5.20;2.35;;;;;;;;;;5073386;28;20025;-65
2022/04/11 12:29:52;;;;;;;4.43;2.65;;;;;;;;;;5084623;28;20051;-65
2022/04/11 12:32:18;;;;;;;6.13;2.33;;;;;;;;;;5084481;28;20039;-65
2022/04/11 12:34:45;;;;;;;3.10;1.92;;;;;;;;;;5092411;28;20020;-65
2022/04/11 12:37:12;;;;;;;3.45;2.15;;;;;;;;;;5089515;28;20100;-65
2022/04/11 12:39:54;;;;;;;7.40;2.05;;;;;;;;;;5078981;28;20028;-64
2022/04/11 12:42:21;;;;;;;9.90;2.40;;;;;;;;;;5057336;28;20025;-64
2022/04/11 12:44:47;;;;;;;7.70;2.10;;;;;;;;;;5072710;28;20111;-65
2022/04/11 12:47:13;;;;;;;4.32;2.40;;;;;;;;;;5082401;28;20025;-65
2022/04/11 12:49:50;;;;;;;4.78;2.35;;;;;;;;;;5085711;28;20561;-65
2022/04/11 12:52:18;;;;;;;5.00;2.47;;;;;;;;;;5091995;28;20028;-65
2022/04/11 12:54:48;;;;;;;4.38;2.70;;;;;;;;;;5089249;28;20055;-66
2022/04/11 12:57:21;;;;;;;5.10;2.70;;;;;;;;;;5083117;28;20036;-65
2022/04/11 12:59:47;;;;;;;5.07;3.00;;;;;;;;;;5079213;28;20032;-65
2022/04/11 13:02:17;;;;;;;10.18;4.28;;;;;;;;;;5089865;28;20024;-65
2022/04/11 13:04:52;;;;;;;5.35;3.10;;;;;;;;;;5080752;28;20027;-65
2022/04/11 13:07:18;;;;;;;2.65;1.10;;;;;;;;;;5081749;28;20020;-64
2022/04/11 13:09:44;;;;;;;6.38;2.05;;;;;;;;;;5078966;28;20020;-64
2022/04/11 13:12:11;;;;;;;2.55;1.90;;;;;;;;;;5081837;28;20053;-65
2022/04/11 13:14:38;;;;;;;6.88;2.40;;;;;;;;;;5085871;28;20044;-65
2022/04/11 13:19:50;;;;;;;4.15;2.83;;;;;;;;;;5091597;28;20031;-64
2022/04/11 13:22:16;;;;;;;9.25;3.17;;;;;;;;;;5091155;28;20035;-64
2022/04/11 13:24:42;;;;;;;8.88;2.03;;;;;;;;;;5090443;28;20016;-64
2022/04/11 13:27:08;;;;;;;1.77;1.38;;;;;;;;;;5082148;28;20031;-64
2022/04/11 13:29:34;;;;;;;3.90;1.85;;;;;;;;;;5085757;28;20082;-65
2022/04/11 13:32:00;;;;;;;4.20;2.15;;;;;;;;;;5070888;28;20036;-65
2022/04/11 13:34:26;;;;;;;6.57;2.80;;;;;;;;;;5068872;28;20421;-64
2022/04/11 13:36:53;;;;;;;3.28;2.20;;;;;;;;;;5085479;28;20023;-64
2022/04/11 13:39:19;;;;;;;3.30;1.80;;;;;;;;;;5089879;28;20039;-64
2022/04/11 13:41:47;;;;;;;3.17;1.38;;;;;;;;;;5086249;28;20381;-65
2022/04/11 13:44:17;;;;;;;3.10;1.95;;;;;;;;;;5089926;28;20539;-64
2022/04/11 13:46:44;;;;;;;4.35;1.98;;;;;;;;;;5091307;28;20012;-64
2022/04/11 13:49:10;;;;;;;5.38;2.08;;;;;;;;;;5072866;28;20032;-64
2022/04/11 13:51:37;;;;;;;3.05;1.85;;;;;;;;;;5091327;28;20036;-64
2022/04/11 13:54:04;;;;;;;5.70;2.53;;;;;;;;;;5090845;28;20032;-65
2022/04/11 13:59:25;;;;;;;3.55;2.42;;;;;;;;;;5113698;22;20173;-68
2022/04/11 14:01:52;;;;;;;5.10;2.80;;;;;;;;;;5091714;28;20078;-67
2022/04/11 14:04:21;;;;;;;7.03;2.80;;;;;;;;;;5081263;28;20371;-67
2022/04/11 14:06:48;;;;;;;4.20;2.65;;;;;;;;;;5090915;28;20107;-67
2022/04/11 14:09:15;;;;;;;6.10;2.53;;;;;;;;;;5073449;28;20039;-68
2022/04/11 14:11:41;;;;;;;6.65;2.30;;;;;;;;;;5090782;28;20032;-68
2022/04/11 14:14:07;;;;;;;4.10;2.10;;;;;;;;;;5090543;28;20031;-68
2022/04/11 14:16:34;;;;;;;3.28;1.75;;;;;;;;;;5076898;28;20249;-67
2022/04/11 14:19:00;;;;;;;2.63;1.48;;;;;;;;;;5081931;28;20035;-68
2022/04/11 14:21:26;;;;;;;1.75;1.17;;;;;;;;;;5090985;28;20407;-67
2022/04/11 14:23:52;;;;;;;2.83;1.80;;;;;;;;;;5077730;28;20024;-67
2022/04/11 14:26:18;;;;;;;4.00;2.00;;;;;;;;;;5074026;28;20016;-68
2022/04/11 14:28:44;;;;;;;1.88;1.67;;;;;;;;;;5079753;28;20031;-67
2022/04/11 14:31:11;;;;;;;3.50;2.63;;;;;;;;;;5074956;28;20055;-68
2022/04/11 14:33:37;;;;;;;4.93;2.80;;;;;;;;;;5086546;28;20032;-67
2022/04/11 14:36:04;;;;;;;5.13;2.80;;;;;;;;;;5066275;28;20075;-67
2022/04/11 14:38:30;;;;;;;4.50;2.13;;;;;;;;;;5078552;28;20016;-68
2022/04/11 14:40:56;;;;;;;7.15;2.83;;;;;;;;;;5073398;28;20617;-67
2022/04/11 14:43:24;;;;;;;5.38;3.20;;;;;;;;;;5090363;28;20381;-67
2022/04/11 14:51:45;;;;;;;5.22;2.70;;;;;;;;;;5074001;28;20045;-67
2022/04/11 14:54:11;;;;;;;7.82;2.35;;;;;;;;;;5094037;28;20036;-67
2022/04/11 14:56:37;;;;;;;3.10;2.22;;;;;;;;;;5086737;28;20051;-67
2022/04/11 14:59:03;;;;;;;8.38;5.03;;;;;;;;;;5087987;28;20028;-67
2022/04/11 15:01:29;;;;;;;5.68;2.88;;;;;;;;;;5082602;28;20153;-67
2022/04/11 15:03:56;;;;;;;3.05;1.73;;;;;;;;;;5090380;28;20077;-67
2022/04/11 15:06:22;;;;;;;8.55;3.38;;;;;;;;;;5067863;28;20020;-67